createdAt,value
2019-05-03T00:01:02.380Z,1.50
2019-05-03T00:02:17.198Z,1.72
2019-05-03T00:03:32.014Z,1.32
2019-05-03T00:04:46.928Z,1.32
2019-05-03T00:06:06.443Z,1.32
2019-05-03T00:07:19.571Z,1.35
2019-05-03T00:08:33.341Z,1.12
2019-05-03T00:09:46.846Z,1.10
2019-05-03T00:11:02.176Z,1.25
2019-05-03T00:12:17.070Z,1.30
2019-05-03T00:13:30.139Z,0.98
2019-05-03T00:14:44.858Z,0.98
2019-05-03T00:16:05.335Z,1.30
2019-05-03T00:17:18.416Z,1.10
2019-05-03T00:18:32.785Z,1.00
2019-05-03T00:19:46.215Z,1.32
2019-05-03T00:21:02.165Z,1.10
2019-05-03T00:22:15.353Z,1.60
2019-05-03T00:23:28.436Z,1.25
2019-05-03T00:24:42.721Z,1.50
2019-05-03T00:25:55.873Z,1.00
2019-05-03T00:27:12.323Z,1.20
2019-05-03T00:28:25.384Z,1.10
2019-05-03T00:29:41.799Z,1.37
2019-05-03T00:30:55.072Z,1.12
2019-05-03T00:32:08.157Z,1.30
2019-05-03T00:33:22.453Z,1.40
2019-05-03T00:34:43.223Z,1.30
2019-05-03T00:36:06.743Z,1.40
2019-05-03T00:37:22.478Z,1.37
2019-05-03T00:38:35.619Z,1.30
2019-05-03T00:39:59.020Z,1.42
2019-05-03T00:41:12.290Z,1.20
2019-05-03T00:42:25.501Z,1.37
2019-05-03T00:43:38.574Z,1.27
2019-05-03T00:44:51.749Z,1.80
2019-05-03T00:46:04.886Z,1.57
2019-05-03T00:47:17.976Z,1.32
2019-05-03T00:48:32.646Z,1.20
2019-05-03T00:49:47.425Z,1.25
2019-05-03T00:51:02.437Z,1.45
2019-05-03T00:52:15.769Z,1.20
2019-05-03T00:53:28.871Z,1.75
2019-05-03T00:54:42.338Z,1.60
2019-05-03T00:55:55.502Z,1.50
2019-05-03T00:57:08.583Z,1.87
2019-05-03T00:58:22.382Z,1.60
2019-05-03T00:59:36.929Z,1.62
2019-05-03T01:00:52.291Z,1.62
2019-05-03T01:02:05.119Z,1.45
2019-05-03T01:03:18.265Z,1.70
2019-05-03T01:04:31.795Z,1.95
2019-05-03T01:05:45.572Z,1.95
2019-05-03T01:06:58.648Z,1.65
2019-05-03T01:08:12.683Z,1.77
2019-05-03T01:09:25.852Z,1.70
2019-05-03T01:10:38.935Z,1.82
2019-05-03T01:11:52.501Z,1.75
2019-05-03T01:13:05.660Z,1.50
2019-05-03T01:14:18.734Z,1.80
2019-05-03T01:15:36.671Z,1.70
2019-05-03T01:16:52.000Z,1.80
2019-05-03T01:18:06.269Z,1.67
2019-05-03T01:19:19.344Z,1.95
2019-05-03T01:20:32.430Z,1.62
2019-05-03T01:21:45.581Z,1.75
2019-05-03T01:22:58.661Z,2.00
2019-05-03T01:24:12.329Z,1.60
2019-05-03T01:25:32.383Z,1.70
2019-05-03T01:26:42.003Z,2.45
2019-05-03T01:27:55.254Z,1.70
2019-05-03T01:29:08.335Z,1.70
2019-05-03T01:30:22.643Z,2.37
2019-05-03T01:31:35.772Z,1.50
2019-05-03T01:32:49.072Z,1.82
2019-05-03T01:34:02.420Z,2.00
2019-05-03T01:35:15.597Z,1.72
2019-05-03T01:36:28.669Z,1.67
2019-05-03T01:37:42.513Z,2.05
2019-05-03T01:38:55.710Z,2.08
2019-05-03T01:40:08.789Z,1.90
2019-05-03T01:41:21.934Z,1.82
2019-05-03T01:42:35.037Z,2.12
2019-05-03T01:43:48.176Z,1.80
2019-05-03T01:45:01.884Z,2.33
2019-05-03T01:46:15.214Z,2.02
2019-05-03T01:47:32.655Z,2.15
2019-05-03T01:48:47.413Z,1.85
2019-05-03T01:50:02.853Z,2.08
2019-05-03T01:51:33.932Z,2.25
2019-05-03T01:52:52.439Z,2.02
2019-05-03T01:54:05.669Z,1.92
2019-05-03T01:55:18.755Z,2.17
2019-05-03T01:56:31.836Z,1.90
2019-05-03T01:57:44.909Z,1.98
2019-05-03T01:58:58.758Z,2.00
2019-05-03T02:00:13.465Z,2.12
2019-05-03T02:01:28.441Z,2.40
2019-05-03T02:02:55.089Z,2.15
2019-05-03T02:04:15.412Z,1.90
2019-05-03T02:05:42.939Z,2.00
2019-05-03T02:06:57.293Z,2.10
2019-05-03T02:08:12.579Z,1.87
2019-05-03T02:09:25.770Z,2.20
2019-05-03T02:10:38.844Z,2.20
2019-05-03T02:11:52.609Z,2.45
2019-05-03T02:13:05.772Z,2.12
2019-05-03T02:14:18.855Z,1.95
2019-05-03T02:15:32.670Z,2.15
2019-05-03T02:16:45.889Z,2.30
2019-05-03T02:17:59.269Z,2.02
2019-05-03T02:19:12.718Z,2.10
2019-05-03T02:20:25.897Z,2.42
2019-05-03T02:21:41.639Z,2.10
2019-05-03T02:22:54.832Z,2.17
2019-05-03T02:24:07.933Z,2.55
2019-05-03T02:25:21.793Z,2.22
2019-05-03T02:26:34.984Z,2.05
2019-05-03T02:27:48.065Z,2.30
2019-05-03T02:29:01.856Z,2.22
2019-05-03T02:30:15.088Z,2.25
2019-05-03T02:31:28.178Z,2.40
2019-05-03T02:32:43.952Z,2.22
2019-05-03T02:33:56.091Z,2.60
2019-05-03T02:35:09.186Z,2.10
2019-05-03T02:36:23.226Z,2.77
2019-05-03T02:37:37.254Z,2.25
2019-05-03T02:38:50.375Z,2.37
2019-05-03T02:40:05.260Z,2.95
2019-05-03T02:41:18.338Z,2.58
2019-05-03T02:42:31.428Z,2.80
2019-05-03T02:43:48.904Z,2.12
2019-05-03T02:45:02.064Z,2.58
2019-05-03T02:46:29.040Z,2.47
2019-05-03T02:48:01.686Z,2.33
2019-05-03T02:49:16.497Z,2.58
2019-05-03T02:50:29.578Z,2.67
2019-05-03T02:51:42.657Z,2.83
2019-05-03T02:52:55.769Z,2.60
2019-05-03T02:54:09.191Z,2.50
2019-05-03T02:55:22.274Z,3.08
2019-05-03T02:56:35.958Z,2.75
2019-05-03T02:57:49.186Z,2.55
2019-05-03T02:59:02.290Z,3.02
2019-05-03T03:00:16.358Z,2.52
2019-05-03T03:01:29.656Z,2.67
2019-05-03T03:02:45.582Z,2.98
2019-05-03T03:03:58.198Z,2.83
2019-05-03T03:05:12.048Z,2.72
2019-05-03T03:06:26.805Z,3.08
2019-05-03T03:07:40.213Z,2.50
2019-05-03T03:08:55.987Z,2.58
2019-05-03T03:10:09.422Z,2.90
2019-05-03T03:11:22.500Z,2.80
2019-05-03T03:12:35.740Z,2.55
2019-05-03T03:13:48.952Z,2.65
2019-05-03T03:15:02.048Z,2.58
2019-05-03T03:16:16.278Z,2.67
2019-05-03T03:17:31.851Z,2.10
2019-05-03T03:18:45.760Z,2.80
2019-05-03T03:19:58.946Z,2.85
2019-05-03T03:21:16.034Z,2.47
2019-05-03T03:22:28.465Z,2.75
2019-05-03T03:23:49.140Z,2.62
2019-05-03T03:25:05.461Z,2.47
2019-05-03T03:26:33.350Z,2.90
2019-05-03T03:27:36.131Z,1.87
2019-05-03T03:28:49.474Z,2.50
2019-05-03T03:30:08.264Z,2.50
2019-05-03T03:31:39.611Z,2.62
2019-05-03T03:32:57.509Z,2.50
2019-05-03T03:34:09.209Z,2.80
2019-05-03T03:35:29.124Z,2.65
2019-05-03T03:37:00.821Z,2.65
2019-05-03T03:38:05.884Z,2.50
2019-05-03T03:39:19.406Z,2.37
2019-05-03T03:40:35.655Z,2.67
2019-05-03T03:41:48.219Z,2.25
2019-05-03T03:43:01.305Z,2.20
2019-05-03T03:44:15.310Z,1.80
2019-05-03T03:45:29.494Z,2.05
2019-05-03T03:46:45.442Z,2.50
2019-05-03T03:47:58.702Z,2.00
2019-05-03T03:49:15.349Z,2.40
2019-05-03T03:50:27.550Z,2.47
2019-05-03T03:51:40.891Z,2.72
2019-05-03T03:52:55.818Z,3.05
2019-05-03T03:54:09.135Z,2.58
2019-05-03T03:55:26.168Z,2.92
2019-05-03T03:56:54.744Z,2.62
2019-05-03T03:57:55.470Z,2.37
2019-05-03T03:59:07.755Z,2.27
2019-05-03T04:00:20.838Z,3.10
2019-05-03T04:01:35.028Z,2.42
2019-05-03T04:02:48.185Z,2.98
2019-05-03T04:04:01.282Z,3.00
2019-05-03T04:05:15.977Z,3.47
2019-05-03T04:06:41.840Z,2.90
2019-05-03T04:07:56.090Z,3.20
2019-05-03T04:09:09.440Z,3.80
2019-05-03T04:10:22.580Z,3.92
2019-05-03T04:11:35.657Z,4.03
2019-05-03T04:12:49.686Z,4.12
2019-05-03T04:14:05.430Z,4.45
2019-05-03T04:15:19.956Z,4.40
2019-05-03T04:16:36.452Z,4.42
2019-05-03T04:17:56.423Z,4.53
2019-05-03T04:19:17.395Z,4.47
2019-05-03T04:20:36.288Z,4.85
2019-05-03T04:21:49.450Z,4.95
2019-05-03T04:23:05.161Z,5.35
2019-05-03T04:24:17.364Z,4.75
2019-05-03T04:25:30.452Z,4.97
2019-05-03T04:26:45.369Z,5.45
2019-05-03T04:27:59.954Z,4.85
2019-05-03T04:29:15.842Z,5.00
2019-05-03T04:30:28.084Z,5.37
2019-05-03T04:31:41.153Z,5.33
2019-05-03T04:32:56.425Z,5.75
2019-05-03T04:34:09.058Z,6.22
2019-05-03T04:35:22.187Z,6.22
2019-05-03T04:36:35.847Z,5.37
2019-05-03T04:37:49.016Z,6.03
2019-05-03T04:39:02.094Z,5.95
2019-05-03T04:40:15.921Z,6.25
2019-05-03T04:41:29.506Z,6.72
2019-05-03T04:42:46.195Z,6.78
2019-05-03T04:43:58.433Z,7.00
2019-05-03T04:45:11.577Z,6.92
2019-05-03T04:46:25.910Z,6.55
2019-05-03T04:47:39.329Z,6.85
2019-05-03T04:48:52.429Z,7.22
2019-05-03T04:50:05.831Z,7.08
2019-05-03T04:51:19.055Z,7.15
2019-05-03T04:52:32.142Z,6.80
2019-05-03T04:53:48.504Z,6.97
2019-05-03T04:55:03.169Z,7.58
2019-05-03T04:56:17.050Z,7.65
2019-05-03T04:57:39.580Z,8.60
2019-05-03T04:58:45.868Z,7.58
2019-05-03T04:59:59.162Z,6.90
2019-05-03T05:01:12.314Z,7.53
2019-05-03T05:02:26.272Z,6.92
2019-05-03T05:03:40.251Z,7.75
2019-05-03T05:04:55.517Z,9.25
2019-05-03T05:06:08.146Z,8.58
2019-05-03T05:07:21.218Z,8.43
2019-05-03T05:08:35.776Z,9.15
2019-05-03T05:09:49.197Z,8.95
2019-05-03T05:11:05.203Z,7.85
2019-05-03T05:12:17.350Z,8.30
2019-05-03T05:13:30.442Z,8.85
2019-05-03T05:14:45.699Z,8.40
2019-05-03T05:15:58.406Z,7.67
2019-05-03T05:17:16.098Z,8.33
2019-05-03T05:18:35.131Z,8.95
2019-05-03T05:19:54.975Z,8.35
2019-05-03T05:21:16.507Z,8.93
2019-05-03T05:24:00.247Z,9.28
2019-05-03T05:25:16.373Z,9.25
2019-05-03T05:26:46.140Z,9.30
2019-05-03T05:28:14.885Z,9.80
2019-05-03T05:29:35.179Z,9.65
2019-05-03T05:30:48.259Z,11.08
2019-05-03T05:32:01.341Z,9.98
2019-05-03T05:33:20.513Z,10.78
2019-05-03T05:34:34.912Z,11.25
2019-05-03T05:35:48.724Z,10.32
2019-05-03T05:37:01.806Z,10.32
2019-05-03T05:38:15.193Z,10.90
2019-05-03T05:39:28.365Z,10.50
2019-05-03T05:40:41.463Z,10.45
2019-05-03T05:41:55.441Z,11.10
2019-05-03T05:43:08.674Z,10.68
2019-05-03T05:44:24.798Z,11.22
2019-05-03T05:45:38.017Z,10.63
2019-05-03T05:47:10.834Z,10.95
2019-05-03T05:48:31.368Z,11.20
2019-05-03T05:49:46.196Z,11.20
2019-05-03T05:50:59.333Z,11.50
2019-05-03T05:52:12.421Z,11.15
2019-05-03T05:53:25.504Z,11.65
2019-05-03T05:54:40.235Z,10.60
2019-05-03T05:55:55.041Z,11.65
2019-05-03T05:57:25.649Z,11.90
2019-05-03T05:58:49.225Z,11.95
2019-05-03T06:00:04.917Z,11.83
2019-05-03T06:01:20.004Z,12.60
2019-05-03T06:02:35.829Z,11.75
2019-05-03T06:03:47.969Z,13.00
2019-05-03T06:05:01.144Z,14.15
2019-05-03T06:06:18.621Z,13.93
2019-05-03T06:07:44.226Z,13.95
2019-05-03T06:08:58.744Z,13.88
2019-05-03T06:10:14.727Z,13.98
2019-05-03T06:11:30.312Z,14.23
2019-05-03T06:12:45.468Z,14.70
2019-05-03T06:14:06.253Z,15.18
2019-05-03T06:15:37.809Z,14.13
2019-05-03T06:16:55.508Z,14.53
2019-05-03T06:18:10.223Z,12.85
2019-05-03T06:19:25.315Z,15.35
2019-05-03T06:20:40.144Z,14.30
2019-05-03T06:22:08.181Z,14.28
2019-05-03T06:23:24.739Z,15.98
2019-05-03T06:24:39.821Z,15.20
2019-05-03T06:25:54.521Z,13.50
2019-05-03T06:27:09.328Z,14.30
2019-05-03T06:28:25.225Z,15.13
2019-05-03T06:29:38.806Z,16.90
2019-05-03T06:31:00.189Z,16.07
2019-05-03T06:32:15.414Z,14.83
2019-05-03T06:33:29.324Z,16.07
2019-05-03T06:34:42.420Z,15.40
2019-05-03T06:35:55.506Z,15.75
2019-05-03T06:37:20.291Z,16.60
2019-05-03T06:38:34.438Z,17.73
2019-05-03T06:39:48.652Z,15.08
2019-05-03T06:41:01.730Z,15.55
2019-05-03T06:42:18.973Z,16.93
2019-05-03T06:43:29.624Z,17.77
2019-05-03T06:44:45.506Z,16.95
2019-05-03T06:45:58.762Z,15.63
2019-05-03T06:47:11.844Z,16.90
2019-05-03T06:48:28.260Z,18.85
2019-05-03T06:49:44.954Z,17.92
2019-05-03T06:50:55.808Z,19.10
2019-05-03T06:52:09.005Z,18.98
2019-05-03T06:53:22.087Z,17.62
2019-05-03T06:54:37.688Z,17.05
2019-05-03T06:55:50.007Z,17.17
2019-05-03T06:57:07.834Z,18.42
2019-05-03T06:58:30.518Z,19.98
2019-05-03T06:59:35.919Z,19.77
2019-05-03T07:00:56.601Z,20.95
2019-05-03T07:02:14.857Z,20.70
2019-05-03T07:03:29.695Z,20.60
2019-05-03T07:04:44.990Z,22.32
2019-05-03T07:06:11.605Z,22.20
2019-05-03T07:07:35.442Z,24.37
2019-05-03T07:08:50.166Z,20.90
2019-05-03T07:10:11.908Z,22.22
2019-05-03T07:11:24.949Z,23.40
2019-05-03T07:12:55.961Z,22.58
2019-05-03T07:14:09.023Z,21.12
2019-05-03T07:15:22.075Z,20.48
2019-05-03T07:16:35.465Z,22.07
2019-05-03T07:17:48.801Z,22.27
2019-05-03T07:19:01.887Z,23.50
2019-05-03T07:20:14.980Z,22.55
2019-05-03T07:21:29.697Z,21.73
2019-05-03T07:22:44.460Z,20.52
2019-05-03T07:23:57.630Z,20.97
2019-05-03T07:25:10.723Z,20.77
2019-05-03T07:26:25.383Z,22.58
2019-05-03T07:27:40.277Z,20.90
2019-05-03T07:28:54.571Z,21.17
2019-05-03T07:30:07.842Z,20.35
2019-05-03T07:31:20.920Z,19.30
2019-05-03T07:32:34.806Z,21.35
2019-05-03T07:33:47.945Z,22.35
2019-05-03T07:35:01.292Z,20.65
2019-05-03T07:36:15.245Z,21.55
2019-05-03T07:37:28.553Z,21.55
2019-05-03T07:38:45.239Z,22.25
2019-05-03T07:39:58.077Z,21.57
2019-05-03T07:41:11.162Z,21.60
2019-05-03T07:42:25.589Z,21.93
2019-05-03T07:43:39.056Z,22.70
2019-05-03T07:44:52.143Z,21.17
2019-05-03T07:46:05.603Z,22.87
2019-05-03T07:47:18.873Z,21.35
2019-05-03T07:48:31.957Z,22.80
2019-05-03T07:49:46.681Z,22.93
2019-05-03T07:50:59.760Z,22.07
2019-05-03T07:52:14.587Z,21.50
2019-05-03T07:53:28.397Z,21.77
2019-05-03T07:54:41.487Z,20.92
2019-05-03T07:55:56.212Z,22.77
2019-05-03T07:57:18.243Z,19.92
2019-05-03T07:58:36.022Z,22.27
2019-05-03T07:59:50.737Z,20.88
2019-05-03T08:01:09.624Z,22.55
2019-05-03T08:02:20.727Z,20.25
2019-05-03T08:03:35.437Z,22.65
2019-05-03T08:04:48.516Z,22.60
2019-05-03T08:06:01.607Z,20.35
2019-05-03T08:07:22.304Z,22.95
2019-05-03T08:08:29.616Z,21.15
2019-05-03T08:09:45.275Z,20.60
2019-05-03T08:10:58.501Z,22.75
2019-05-03T08:12:11.580Z,21.10
2019-05-03T08:13:25.352Z,21.85
2019-05-03T08:14:38.597Z,21.35
2019-05-03T08:15:51.742Z,22.45
2019-05-03T08:17:05.215Z,22.17
2019-05-03T08:18:18.503Z,20.15
2019-05-03T08:19:31.848Z,20.65
2019-05-03T08:20:45.317Z,20.75
2019-05-03T08:21:58.493Z,20.12
2019-05-03T08:23:24.402Z,20.25
2019-05-03T08:24:26.476Z,19.70
2019-05-03T08:25:39.566Z,20.45
2019-05-03T08:26:52.655Z,20.52
2019-05-03T08:28:05.757Z,19.52
2019-05-03T08:29:19.648Z,18.25
2019-05-03T08:30:40.427Z,20.75
2019-05-03T08:32:11.630Z,18.87
2019-05-03T08:33:44.723Z,19.77
2019-05-03T08:35:11.370Z,19.95
2019-05-03T08:36:24.815Z,19.92
2019-05-03T08:37:39.667Z,21.52
2019-05-03T08:38:52.833Z,20.35
2019-05-03T08:40:05.947Z,18.55
2019-05-03T08:41:24.714Z,19.32
2019-05-03T08:42:37.940Z,19.57
2019-05-03T08:43:51.099Z,19.90
2019-05-03T08:45:07.929Z,19.65
2019-05-03T08:46:20.083Z,18.60
2019-05-03T08:47:34.487Z,19.60
2019-05-03T08:48:47.630Z,18.70
2019-05-03T08:50:02.353Z,14.43
2019-05-03T08:51:15.517Z,17.02
2019-05-03T08:52:28.618Z,15.70
2019-05-03T08:53:41.717Z,17.07
2019-05-03T08:54:55.167Z,16.62
2019-05-03T08:56:08.390Z,16.20
2019-05-03T08:57:21.476Z,18.17
2019-05-03T08:58:34.928Z,17.52
2019-05-03T08:59:48.201Z,18.20
2019-05-03T09:01:01.277Z,17.62
2019-05-03T09:02:17.301Z,18.42
2019-05-03T09:03:29.190Z,17.77
2019-05-03T09:04:43.268Z,19.10
2019-05-03T09:05:57.038Z,17.75
2019-05-03T09:07:10.121Z,17.98
2019-05-03T09:08:24.878Z,17.73
2019-05-03T09:09:46.164Z,17.48
2019-05-03T09:11:00.909Z,17.92
2019-05-03T09:12:14.541Z,18.40
2019-05-03T09:13:48.253Z,18.50
2019-05-03T09:15:04.685Z,16.52
2019-05-03T09:16:18.012Z,18.25
2019-05-03T09:17:31.161Z,15.00
2019-05-03T09:18:45.454Z,15.15
2019-05-03T09:19:59.669Z,16.37
2019-05-03T09:21:14.673Z,16.17
2019-05-03T09:22:27.493Z,17.20
2019-05-03T09:23:40.585Z,13.03
2019-05-03T09:24:54.583Z,14.40
2019-05-03T09:26:07.739Z,15.00
2019-05-03T09:27:20.833Z,14.53
2019-05-03T09:28:34.859Z,16.12
2019-05-03T09:29:48.293Z,16.12
2019-05-03T09:31:01.339Z,13.10
2019-05-03T09:32:14.795Z,14.68
2019-05-03T09:33:28.193Z,14.38
2019-05-03T09:34:41.216Z,13.65
2019-05-03T09:35:55.318Z,13.08
2019-05-03T09:37:08.356Z,13.83
2019-05-03T09:38:21.387Z,13.40
2019-05-03T09:39:35.507Z,11.40
2019-05-03T09:40:48.712Z,11.50
2019-05-03T09:42:01.736Z,10.45
2019-05-03T09:43:15.152Z,11.22
2019-05-03T09:44:28.408Z,9.78
2019-05-03T09:45:41.493Z,8.30
2019-05-03T09:46:55.092Z,8.13
2019-05-03T09:48:08.264Z,8.65
2019-05-03T09:49:22.127Z,7.83
2019-05-03T09:50:35.924Z,8.58
2019-05-03T09:51:49.172Z,8.20
2019-05-03T09:53:02.212Z,7.65
2019-05-03T09:54:16.874Z,7.45
2019-05-03T09:55:31.548Z,7.47
2019-05-03T09:56:58.560Z,7.37
2019-05-03T09:58:11.441Z,7.17
2019-05-03T09:59:25.484Z,7.22
2019-05-03T10:00:38.609Z,5.58
2019-05-03T10:01:51.640Z,7.42
2019-05-03T10:03:05.560Z,8.58
2019-05-03T10:04:18.780Z,8.03
2019-05-03T10:05:31.807Z,7.95
2019-05-03T10:06:45.419Z,8.38
2019-05-03T10:07:58.507Z,9.20
2019-05-03T10:09:11.554Z,10.08
2019-05-03T10:10:24.890Z,9.45
2019-05-03T10:11:38.038Z,8.55
2019-05-03T10:12:51.127Z,6.62
2019-05-03T10:14:04.682Z,7.45
2019-05-03T10:15:20.718Z,7.78
2019-05-03T10:16:35.415Z,7.55
2019-05-03T10:17:50.201Z,7.40
2019-05-03T10:19:03.244Z,7.50
2019-05-03T10:20:16.582Z,7.35
2019-05-03T10:21:31.371Z,6.92
2019-05-03T10:22:44.440Z,6.37
2019-05-03T10:23:59.072Z,6.95
2019-05-03T10:25:12.219Z,6.67
2019-05-03T10:26:26.213Z,5.97
2019-05-03T10:27:45.756Z,5.87
2019-05-03T10:28:59.193Z,4.03
2019-05-03T10:30:15.059Z,3.90
2019-05-03T10:31:29.766Z,3.87
2019-05-03T10:32:45.013Z,3.62
2019-05-03T10:34:01.434Z,3.35
2019-05-03T10:35:15.754Z,2.98
2019-05-03T10:36:28.857Z,3.72
2019-05-03T10:37:42.007Z,3.58
2019-05-03T10:38:55.524Z,3.47
2019-05-03T10:40:08.724Z,3.95
2019-05-03T10:41:21.870Z,3.62
2019-05-03T10:42:35.372Z,3.90
2019-05-03T10:43:48.627Z,3.62
2019-05-03T10:45:01.749Z,4.03
2019-05-03T10:46:15.949Z,4.12
2019-05-03T10:47:29.357Z,3.80
2019-05-03T10:48:44.881Z,3.83
2019-05-03T10:49:57.282Z,3.47
2019-05-03T10:51:10.409Z,3.65
2019-05-03T10:52:25.755Z,4.37
2019-05-03T10:53:45.409Z,4.83
2019-05-03T10:54:58.273Z,4.53
2019-05-03T10:56:22.800Z,5.00
2019-05-03T10:57:35.522Z,4.85
2019-05-03T10:58:59.428Z,5.45
2019-05-03T11:00:41.703Z,6.03
2019-05-03T11:01:45.365Z,6.12
2019-05-03T11:03:00.315Z,5.05
2019-05-03T11:04:14.785Z,4.45
2019-05-03T11:05:28.105Z,5.03
2019-05-03T11:06:41.187Z,5.28
2019-05-03T11:07:55.594Z,4.72
2019-05-03T11:09:08.870Z,4.05
2019-05-03T11:10:22.236Z,5.10
2019-05-03T11:11:35.446Z,4.47
2019-05-03T11:12:48.824Z,5.33
2019-05-03T11:14:01.925Z,4.78
2019-05-03T11:15:15.130Z,3.60
2019-05-03T11:16:28.229Z,3.22
2019-05-03T11:17:41.396Z,2.92
2019-05-03T11:18:54.925Z,3.40
2019-05-03T11:20:08.151Z,3.17
2019-05-03T11:21:28.224Z,3.45
2019-05-03T11:22:37.692Z,3.30
2019-05-03T11:23:50.838Z,2.52
2019-05-03T11:25:05.143Z,3.05
2019-05-03T11:26:19.314Z,2.80
2019-05-03T11:27:36.915Z,2.62
2019-05-03T11:28:50.099Z,2.60
2019-05-03T11:30:04.948Z,2.47
2019-05-03T11:31:35.965Z,2.45
2019-05-03T11:32:50.672Z,2.20
2019-05-03T11:34:05.420Z,1.77
2019-05-03T11:35:24.689Z,1.85
2019-05-03T11:36:57.761Z,1.37
2019-05-03T11:38:15.064Z,1.40
2019-05-03T11:39:28.252Z,1.42
2019-05-03T11:40:42.690Z,1.25
2019-05-03T11:41:57.644Z,1.52
2019-05-03T11:43:10.724Z,1.90
2019-05-03T11:44:31.584Z,1.92
2019-05-03T11:45:44.956Z,3.05
2019-05-03T11:46:58.089Z,3.27
2019-05-03T11:48:11.274Z,3.12
2019-05-03T11:49:25.434Z,2.80
2019-05-03T11:50:38.683Z,2.90
2019-05-03T11:51:51.833Z,2.83
2019-05-03T11:53:05.319Z,2.92
2019-05-03T11:54:18.539Z,3.30
2019-05-03T11:55:31.642Z,3.42
2019-05-03T11:56:44.993Z,3.30
2019-05-03T11:57:58.200Z,3.27
2019-05-03T11:59:14.740Z,3.45
2019-05-03T12:00:29.637Z,3.65
2019-05-03T12:01:47.470Z,3.60
2019-05-03T12:03:07.806Z,3.80
2019-05-03T12:04:20.879Z,3.90
2019-05-03T12:05:34.393Z,4.20
2019-05-03T12:06:47.560Z,3.90
2019-05-03T12:08:00.637Z,4.17
2019-05-03T12:09:15.503Z,3.58
2019-05-03T12:10:46.238Z,3.62
2019-05-03T12:11:43.473Z,4.20
2019-05-03T12:13:00.991Z,4.03
2019-05-03T12:14:15.457Z,3.70
2019-05-03T12:15:28.824Z,3.40
2019-05-03T12:18:09.626Z,4.00
2019-05-03T12:19:29.999Z,3.67
2019-05-03T12:20:39.513Z,4.05
2019-05-03T12:21:54.023Z,5.95
2019-05-03T12:23:08.278Z,6.62
2019-05-03T12:24:22.515Z,6.95
2019-05-03T12:25:37.046Z,9.28
2019-05-03T12:26:50.824Z,9.35
2019-05-03T12:28:05.827Z,10.88
2019-05-03T12:29:19.505Z,10.00
2019-05-03T12:30:35.542Z,10.55
2019-05-03T12:31:49.035Z,10.60
2019-05-03T12:33:02.335Z,10.25
2019-05-03T12:34:15.957Z,10.58
2019-05-03T12:35:30.953Z,11.28
2019-05-03T12:36:45.236Z,13.03
2019-05-03T12:37:58.525Z,11.83
2019-05-03T12:39:24.132Z,12.35
2019-05-03T12:40:27.346Z,13.75
2019-05-03T12:41:40.612Z,15.65
2019-05-03T12:42:55.884Z,14.58
2019-05-03T12:44:09.126Z,15.40
2019-05-03T12:45:24.746Z,15.63
2019-05-03T12:46:38.212Z,16.25
2019-05-03T12:47:51.502Z,14.55
2019-05-03T12:49:05.219Z,15.40
2019-05-03T12:50:19.697Z,15.03
2019-05-03T12:51:34.539Z,16.67
2019-05-03T12:52:50.408Z,14.28
2019-05-03T12:54:04.836Z,14.73
2019-05-03T12:55:17.925Z,13.60
2019-05-03T12:56:32.895Z,14.20
2019-05-03T12:57:46.248Z,14.00
2019-05-03T12:59:01.935Z,13.10
2019-05-03T13:00:19.652Z,12.58
2019-05-03T13:01:45.329Z,12.90
2019-05-03T13:03:19.313Z,11.73
2019-05-03T13:04:34.233Z,9.78
2019-05-03T13:05:47.505Z,9.35
2019-05-03T13:07:11.838Z,10.85
2019-05-03T13:08:36.404Z,9.63
2019-05-03T13:09:49.746Z,8.78
2019-05-03T13:11:05.286Z,8.48
2019-05-03T13:12:20.441Z,7.58
2019-05-03T13:13:35.886Z,8.18
2019-05-03T13:14:48.876Z,7.65
2019-05-03T13:16:02.136Z,6.80
2019-05-03T13:17:17.641Z,6.28
2019-05-03T13:18:30.912Z,6.40
2019-05-03T13:19:45.174Z,4.25
2019-05-03T13:20:58.644Z,4.78
2019-05-03T13:22:12.003Z,5.28
2019-05-03T13:23:25.530Z,4.47
2019-05-03T13:24:39.797Z,5.15
2019-05-03T13:25:53.061Z,4.70
2019-05-03T13:27:06.334Z,5.03
2019-05-03T13:28:19.692Z,5.22
2019-05-03T13:29:34.830Z,5.45
2019-05-03T13:30:47.944Z,4.80
2019-05-03T13:32:02.342Z,4.60
2019-05-03T13:33:15.733Z,4.50
2019-05-03T13:34:29.005Z,4.55
2019-05-03T13:35:44.449Z,4.40
2019-05-03T13:36:57.304Z,5.00
2019-05-03T13:38:10.572Z,4.53
2019-05-03T13:39:26.345Z,3.92
2019-05-03T13:40:40.257Z,4.35
2019-05-03T13:41:54.960Z,4.55
2019-05-03T13:43:08.303Z,4.22
2019-05-03T13:44:21.642Z,4.58
2019-05-03T13:45:36.537Z,4.92
2019-05-03T13:46:49.806Z,4.50
2019-05-03T13:48:05.024Z,4.90
2019-05-03T13:49:18.110Z,5.05
2019-05-03T13:50:31.370Z,4.80
2019-05-03T13:51:45.248Z,4.47
2019-05-03T13:52:58.554Z,5.03
2019-05-03T13:54:11.822Z,4.30
2019-05-03T13:55:25.091Z,5.05
2019-05-03T13:56:38.353Z,5.45
2019-05-03T13:57:51.647Z,5.22
2019-05-03T13:59:18.279Z,6.25
2019-05-03T14:00:19.900Z,6.90
2019-05-03T14:01:33.169Z,7.53
2019-05-03T14:02:46.455Z,8.08
2019-05-03T14:03:59.729Z,8.08
2019-05-03T14:05:12.993Z,8.73
2019-05-03T14:06:26.310Z,9.08
2019-05-03T14:07:39.630Z,8.63
2019-05-03T14:08:54.804Z,8.85
2019-05-03T14:10:07.956Z,9.20
2019-05-03T14:11:21.215Z,8.55
2019-05-03T14:12:35.203Z,10.00
2019-05-03T14:13:48.516Z,9.78
2019-05-03T14:15:01.803Z,9.30
2019-05-03T14:16:15.088Z,8.40
2019-05-03T14:17:28.964Z,8.35
2019-05-03T14:18:42.186Z,9.13
2019-05-03T14:20:00.563Z,9.90
2019-05-03T14:21:15.557Z,9.35
2019-05-03T14:22:30.302Z,9.58
2019-05-03T14:24:01.532Z,9.23
2019-05-03T14:25:15.194Z,9.33
2019-05-03T14:26:29.996Z,9.25
2019-05-03T14:27:43.084Z,9.28
2019-05-03T14:28:56.170Z,8.73
2019-05-03T14:30:09.242Z,8.48
2019-05-03T14:31:22.320Z,9.45
2019-05-03T14:32:35.917Z,10.25
2019-05-03T14:33:49.168Z,9.35
2019-05-03T14:35:04.053Z,9.15
2019-05-03T14:36:17.892Z,8.90
2019-05-03T14:37:30.989Z,8.75
2019-05-03T14:38:46.926Z,7.17
2019-05-03T14:39:58.869Z,8.63
2019-05-03T14:41:11.948Z,7.85
2019-05-03T14:42:25.044Z,8.05
2019-05-03T14:43:38.122Z,6.90
2019-05-03T14:44:51.185Z,6.65
2019-05-03T14:46:05.591Z,7.67
2019-05-03T14:47:18.834Z,7.20
2019-05-03T14:48:31.913Z,6.55
2019-05-03T14:49:44.995Z,7.47
2019-05-03T14:50:59.433Z,7.37
2019-05-03T14:52:14.604Z,7.33
2019-05-03T14:53:27.320Z,7.35
2019-05-03T14:54:41.554Z,7.15
2019-05-03T14:55:59.043Z,7.47
2019-05-03T14:57:25.956Z,7.30
2019-05-03T14:58:57.669Z,8.55
2019-05-03T15:00:25.837Z,8.78
2019-05-03T15:01:40.576Z,7.90
2019-05-03T15:02:57.907Z,7.40
2019-05-03T15:04:10.095Z,6.97
2019-05-03T15:05:25.184Z,8.60
2019-05-03T15:06:37.875Z,8.45
2019-05-03T15:07:50.990Z,8.03
2019-05-03T15:09:05.424Z,8.78
2019-05-03T15:10:18.574Z,8.33
2019-05-03T15:11:31.607Z,9.25
2019-05-03T15:12:45.324Z,9.75
2019-05-03T15:13:58.457Z,8.53
2019-05-03T15:15:11.479Z,8.38
2019-05-03T15:16:25.051Z,8.10
2019-05-03T15:17:38.228Z,8.75
2019-05-03T15:18:52.302Z,9.55
2019-05-03T15:20:06.496Z,9.05
2019-05-03T15:21:19.526Z,10.23
2019-05-03T15:22:34.596Z,9.43
2019-05-03T15:23:48.444Z,8.63
2019-05-03T15:25:01.495Z,9.40
2019-05-03T15:26:14.514Z,9.10
2019-05-03T15:27:27.540Z,9.48
2019-05-03T15:28:40.568Z,10.38
2019-05-03T15:29:55.468Z,8.55
2019-05-03T15:31:08.361Z,9.55
2019-05-03T15:32:21.385Z,9.00
2019-05-03T15:33:35.327Z,9.18
2019-05-03T15:34:48.565Z,9.63
2019-05-03T15:36:01.605Z,9.55
2019-05-03T15:37:14.931Z,8.95
2019-05-03T15:38:28.001Z,9.93
2019-05-03T15:39:41.046Z,9.70
2019-05-03T15:40:54.734Z,7.85
2019-05-03T15:42:08.241Z,9.25
2019-05-03T15:43:25.842Z,9.00
2019-05-03T15:44:48.464Z,8.10
2019-05-03T15:46:08.886Z,8.93
2019-05-03T15:47:39.594Z,8.38
2019-05-03T15:48:55.421Z,9.08
2019-05-03T15:50:08.753Z,10.40
2019-05-03T15:51:21.941Z,9.70
2019-05-03T15:52:37.071Z,9.28
2019-05-03T15:53:50.089Z,8.90
2019-05-03T15:55:04.693Z,9.53
2019-05-03T15:56:17.876Z,9.83
2019-05-03T15:57:30.900Z,9.13
2019-05-03T15:58:46.770Z,9.55
2019-05-03T16:00:01.721Z,10.05
2019-05-03T16:01:15.351Z,9.55
2019-05-03T16:02:28.666Z,9.80
2019-05-03T16:03:41.790Z,8.50
2019-05-03T16:04:57.186Z,9.30
2019-05-03T16:06:09.782Z,9.85
2019-05-03T16:07:24.898Z,9.10
2019-05-03T16:08:37.748Z,9.10
2019-05-03T16:09:50.779Z,8.48
2019-05-03T16:11:05.347Z,8.88
2019-05-03T16:12:18.515Z,8.70
2019-05-03T16:13:31.558Z,9.40
2019-05-03T16:14:44.645Z,8.20
2019-05-03T16:15:57.692Z,9.25
2019-05-03T16:17:10.848Z,9.23
2019-05-03T16:18:24.531Z,9.18
2019-05-03T16:19:37.793Z,10.48
2019-05-03T16:20:50.816Z,9.13
2019-05-03T16:22:04.902Z,9.88
2019-05-03T16:23:18.061Z,9.83
2019-05-03T16:24:31.089Z,10.18
2019-05-03T16:25:44.896Z,9.50
2019-05-03T16:27:11.634Z,9.83
2019-05-03T16:28:26.712Z,9.95
2019-05-03T16:29:39.826Z,9.00
2019-05-03T16:30:55.544Z,9.03